Tiempo atmosférico en la estación meteorológica de Adeje, Santa Cruz de Tenerife (130 m.)

Fecha
DESCASC
Temp. máxima en grados centígrados (hora)
DESCASC
Temp. mínima en grados centígrados (hora)
DESCASC
Temp. media en grados centígrados
DESCASC
Racha de viento máxima en m/sg (hora)
DESCASC
Velocidad máxima media en intervalos de 10 minutos(hora)
DESCASC
Precipitaciones diarias en mm
DESCASC
Precipitaciones de 00:00 a 06:00 en mm
DESCASC
Precipitaciones de 06:00 a 12:00 en mm
DESCASC
Precipitaciones de 12:00 a 18:00 en mm
DESCASC
Precipitaciones de 18:00 a 24:00 en mm
DESCASC
23-11-2017 26.2 (13:30) 14.7 (07:20) 20.5 4.44 (11:50) 2.5 (11:50) 0 0 0 0 0
22-11-2017 27.3 (13:20) 18.5 (23:59) 22.9 7.5 (00:50) 4.44 (00:50) 0 0 0 0 0
21-11-2017 25.7 (00:00) 23.3 (20:40) 24.5 10.83 (02:30) 4.17 (05:40) 0 0 0 0 0
20-11-2017 28.3 (12:50) 17 (06:50) 22.6 9.72 (15:10) 4.17 (21:30) 0 0 0 0 0
19-11-2017 24.8 (12:30) 17.2 (00:00) 21 5.28 (15:20) 2.78 (15:10) 0 0 0 0 0
18-11-2017 24.4 (10:50) 17.6 (00:00) 21 5 (11:30) 2.5 (11:00) 0 0 0 0 0
17-11-2017 23.3 (12:00) 16.8 (00:00) 20 5.83 (18:30) 2.78 (01:30) 0 0 0 0 0
16-11-2017 24 (14:30) 17.6 (00:00) 20.8 4.17 (11:00) 2.22 (10:10) 0 0 0 0 0
15-11-2017 25.1 (13:00) 19.6 (00:00) 22.4 7.22 (14:50) 3.33 (13:50) 0 0 0 0 0
14-11-2017 24.7 (12:40) 19.1 (00:00) 21.9 6.67 (12:30) 3.33 (12:50) 0 0 0 0 0
13-11-2017 24.7 (12:40) 18.3 (00:00) 21.5 5.56 (17:50) 3.61 (17:40) 0 0 0 0 0
12-11-2017 28.5 (15:20) 19.1 (00:00) 23.8 4.17 (13:30) 2.78 (13:30) 0 0 0 0 0
11-11-2017 26.6 (15:00) 18.9 (00:00) 22.8 5 (16:20) 2.78 (16:30) 0 0 0 0 0
10-11-2017 26.7 (15:30) 16.5 (00:00) 21.6 4.72 (13:00) 2.5 (12:40) 0 0 0 0 0
09-11-2017 26.4 (15:50) 19.2 (00:00) 22.8 6.11 (13:20) 3.33 (13:10) 0 0 0 0 0
08-11-2017 27.4 (15:10) 18.6 (00:00) 23 6.39 (16:10) 3.89 (16:10) 0 0 0 0 0
07-11-2017 26.3 (13:20) 17.9 (00:00) 22.1 5.28 (14:40) 3.06 (12:30) 0 0 0 0 0
06-11-2017 25.1 (15:40) 17.9 (00:00) 21.5 5.28 (13:40) 2.78 (07:50) 0 0 0 0 0
05-11-2017 25.9 (14:20) 18.3 (00:00) 22.1 5.56 (14:30) 2.78 (14:20) 0 0 0 0 0
04-11-2017 25.9 (15:30) 18.7 (00:00) 22.3 6.67 (14:10) 3.06 (15:50) 0 0 0 0 0
03-11-2017 25.5 (12:10) 17.6 (00:00) 21.6 6.39 (22:50) 3.06 (17:00) 0 0 0 0 0
02-11-2017 25.7 (14:20) 19.2 (01:00) 22.5 6.67 (15:20) 3.06 (13:20) 0 0 0 0 0
01-11-2017 26 (16:30) 18.1 (00:00) 22.1 5.83 (14:00) 3.33 (13:40) 0 0 0 0 0
31-10-2017 26.4 (13:00) 17.9 (00:00) 22.1 6.11 (13:50) 3.06 (14:40) 0 0 0 0 0
30-10-2017 26.1 (15:30) 18.7 (00:00) 22.4 5.28 (11:50) 2.78 (11:40) 0 0 0 0 0
29-10-2017 28.7 (11:40) 18.5 (00:00) 23.6 5.83 (14:50) 3.06 (14:40) 0 0 0 0 0
28-10-2017 31.7 (14:30) 20.8 (00:00) 26.3 4.72 (06:50) 2.22 (13:30) 0 0 0 0 0
27-10-2017 31.4 (15:40) 23.1 (00:00) 27.3 12.5 (05:40) 5 (13:30) 0 0 0 0 0
26-10-2017 32.9 (13:50) 23 (00:00) 28 9.44 (10:30) 3.89 (10:00) 0 0 0 0 0

Gráficas

Temp. máximas Temp. mínimas Temp. medias Precipitaciones Rachas de viento máximas Velocidades máximas media en intervalos de 10 minutos

Datos horarios

Fecha y hora oficial Temperatura (ºC) Velocidad del viento (km/h) Dirección del viento Racha (km/h) Dirección de racha Precipitación (mm) Presión (hPa) Tendencia (hPa) Humedad (%)
2017-11-24 23:00:00 22.1 5 Nordeste 11 Nordeste 0 -- -- 32
2017-11-24 22:00:00 22.2 3 Este 8 Sur 0 -- -- 34
2017-11-24 21:00:00 22.4 2 Este 12 Sudeste 0 -- -- 34
2017-11-24 20:00:00 23.2 6 Sudeste 12 Sudeste 0 -- -- 44
2017-11-24 19:00:00 23.2 3 Nordeste 21 Sudoeste 0 -- -- 38
2017-11-24 18:00:00 25.5 6 Sudeste 23 Oeste 0 -- -- 32
2017-11-24 17:00:00 27.2 7 Sur 23 Sur 0 -- -- 31
2017-11-24 16:00:00 25.5 6 Este 23 Sur 0 -- -- 43
2017-11-24 15:00:00 25.8 6 Norte 21 Oeste 0 -- -- 50
2017-11-24 14:00:00 25.3 9 Sudeste 26 Nordeste 0 -- -- 50
2017-11-24 13:00:00 24.9 8 Este 31 Nordeste 0 -- -- 57
2017-11-24 12:00:00 25.1 12 Nordeste 31 Nordeste 0 -- -- 63
2017-11-24 11:00:00 24.2 8 Este 26 Nordeste 0 -- -- 64
2017-11-24 10:00:00 22.5 8 Nordeste 25 Este 0 -- -- 70
2017-11-24 09:00:00 21 8 Nordeste 22 Nordeste 0 -- -- 78
2017-11-24 08:00:00 19.2 4 Oeste 9 Sur 0 -- -- 79
2017-11-24 07:00:00 18.1 0 Calma 2 Nordeste 0 -- -- 68
2017-11-24 06:00:00 18.6 3 Sudeste 8 Este 0 -- -- 72
2017-11-24 05:00:00 19 3 Sur 8 Sudoeste 0 -- -- 80
2017-11-24 04:00:00 19.1 3 Norte 11 Noroeste 0 -- -- 86
2017-11-24 03:00:00 19 4 Nordeste 7 Sur 0 -- -- 81
2017-11-24 02:00:00 19 2 Norte 5 Norte 0 -- -- 84
2017-11-24 01:00:00 18.6 0 Calma 5 Nordeste 0 -- -- 82
2017-11-24 00:00:00 18.4 0 Calma 4 Nordeste 0 -- -- 81
2017-11-23 23:00:00 19.2 0 Calma 4 Nordeste 0 -- -- 79
2017-11-23 22:00:00 19.6 3 Nordeste 4 Nordeste 0 -- -- 80
2017-11-23 21:00:00 19.5 0 Calma 3 Norte 0 -- -- 76
2017-11-23 20:00:00 19.7 0 Calma 8 Oeste 0 -- -- 79
2017-11-23 19:00:00 20.1 3 Noroeste 9 Oeste 0 -- -- 76
2017-11-23 18:00:00 21.8 4 Oeste 14 Oeste 0 -- -- 67
2017-11-23 17:00:00 23.9 8 Oeste 14 Sudoeste 0 -- -- 59
2017-11-23 16:00:00 24.8 7 Sudoeste 15 Sudoeste 0 -- -- 54
2017-11-23 15:00:00 25.9 8 Sudoeste 14 Sudoeste 0 -- -- 48
2017-11-23 14:00:00 25.9 8 Sudoeste 16 Sudoeste 0 -- -- 45
2017-11-23 13:00:00 24.7 3 Oeste 13 Oeste 0 -- -- 55
2017-11-23 12:00:00 25.7 6 Sudoeste 16 Oeste 0 -- -- 52
2017-11-23 11:00:00 23.6 3 Sudoeste 9 Oeste 0 -- -- 60
2017-11-23 10:00:00 19.9 0 Calma 5 Sur 0 -- -- 61
2017-11-23 09:00:00 16.4 0 Calma 4 Sur 0 -- -- 76
2017-11-23 08:00:00 15.7 0 Calma 6 Oeste 0 -- -- 74
2017-11-23 07:00:00 15.2 0 Calma 5 Este 0 -- -- 79
2017-11-23 06:00:00 16.6 3 Sudeste 6 Este 0 -- -- 82
2017-11-23 05:00:00 16.1 0 Calma 5 Este 0 -- -- 82
2017-11-23 04:00:00 16.2 0 Calma 7 Este 0 -- -- 80
2017-11-23 03:00:00 17.2 4 Sudeste 6 Este 0 -- -- 75
2017-11-23 02:00:00 17.4 3 Sur 5 Oeste 0 -- -- 80
2017-11-23 01:00:00 18 0 Calma 5 Norte 0 -- -- 83
2017-11-23 00:00:00 18.5 3 Nordeste 7 Norte 0 -- -- 81
2017-11-22 23:00:00 18.8 2 Nordeste 5 Norte 0 -- -- 80
2017-11-22 22:00:00 18.9 0 Calma 6 Norte 0 -- -- 80
2017-11-22 21:00:00 19.1 3 Nordeste 14 Sudoeste 0 -- -- 76
2017-11-22 20:00:00 20 3 Sudeste 6 Sudoeste 0 -- -- 75
2017-11-22 19:00:00 20.9 0 Calma 5 Sudoeste 0 -- -- 70
2017-11-22 18:00:00 23.2 3 Sudoeste 12 Oeste 0 -- -- 61
2017-11-22 17:00:00 25.4 5 Oeste 14 Oeste 0 -- -- 51
2017-11-22 16:00:00 26.3 5 Sudoeste 17 Sudoeste 0 -- -- 49
2017-11-22 15:00:00 26.6 11 Sudoeste 20 Sudoeste 0 -- -- 48
2017-11-22 14:00:00 27.1 9 Sudoeste 17 Sudoeste 0 -- -- 42
2017-11-22 13:00:00 27.1 9 Sudoeste 20 Sudoeste 0 -- -- 47
2017-11-22 12:00:00 26.8 9 Sudoeste 18 Sudoeste 0 -- -- 45
2017-11-22 11:00:00 26.2 9 Sudoeste 20 Sudoeste 0 -- -- 40
2017-11-22 10:00:00 24.6 4 Oeste 17 Este 0 -- -- 32
2017-11-22 09:00:00 22.5 6 Este 17 Este 0 -- -- 29
2017-11-22 08:00:00 22.5 5 Este 16 Sudeste 0 -- -- 17
2017-11-22 07:00:00 23.6 6 Nordeste 15 Nordeste 0 -- -- 15
2017-11-22 06:00:00 22.9 4 Este 17 Sur 0 -- -- 15
2017-11-22 05:00:00 23.1 6 Sudeste 21 Nordeste 0 -- -- 15
2017-11-22 04:00:00 23 4 Este 16 Este 0 -- -- 15
2017-11-22 03:00:00 23.8 7 Este 22 Nordeste 0 -- -- 14
2017-11-22 02:00:00 24.1 9 Nordeste 26 Nordeste 0 -- -- 13
2017-11-22 01:00:00 24.1 15 Nordeste 27 Nordeste 0 -- -- 14
2017-11-22 00:00:00 24 10 Nordeste 28 Nordeste 0 -- -- 13
2017-11-21 23:00:00 23.8 8 Norte 34 Nordeste 0 -- -- 14
2017-11-21 22:00:00 23.6 9 Este 24 Este 0 -- -- 14
2017-11-21 21:00:00 23.3 6 Nordeste 29 Este 0 -- -- 16
2017-11-21 20:00:00 23.6 10 Este 25 Este 0 -- -- 16
2017-11-21 19:00:00 23.5 9 Este 28 Nordeste 0 -- -- 17
2017-11-21 18:00:00 23.7 12 Este 26 Este 0 -- -- 19
2017-11-21 17:00:00 24 11 Nordeste 32 Este 0 -- -- 20
2017-11-21 16:00:00 24.5 12 Norte 27 Este 0 -- -- 19
2017-11-21 15:00:00 25 9 Noroeste 33 Nordeste 0 -- -- 21
2017-11-21 14:00:00 25.6 11 Este 33 Este 0 -- -- 22
2017-11-21 13:00:00 25 10 Nordeste 32 Este 0 -- -- 22
2017-11-21 12:00:00 24.8 13 Este 33 Sudeste 0 -- -- 22
2017-11-21 11:00:00 25.4 9 Nordeste 36 Nordeste 0 -- -- 21
2017-11-21 10:00:00 25.2 8 Este 28 Este 0 -- -- 21
2017-11-21 09:00:00 24.2 9 Este 33 Nordeste 0 -- -- 23
2017-11-21 08:00:00 24.1 10 Este 34 Este 0 -- -- 18
2017-11-21 07:00:00 24.6 13 Nordeste 32 Nordeste 0 -- -- 16
2017-11-21 06:00:00 24.7 10 Este 33 Este 0 -- -- 15
2017-11-21 05:00:00 24.9 13 Nordeste 33 Nordeste 0 -- -- 14
2017-11-21 04:00:00 24.8 12 Este 32 Nordeste 0 -- -- 14
2017-11-21 03:00:00 25.2 12 Este 39 Nordeste 0 -- -- 14
2017-11-21 02:00:00 25.5 13 Nordeste 28 Este 0 -- -- 13
2017-11-21 01:00:00 25.6 8 Este 26 Este 0 -- -- 13
2017-11-21 00:00:00 25.7 9 Este 31 Este 0 -- -- 13
2017-11-20 23:00:00 25.4 11 Nordeste 26 Este 0 -- -- 13
2017-11-20 22:00:00 25.4 13 Este 30 Este 0 -- -- 13
2017-11-20 21:00:00 25.2 10 Este 22 Este 0 -- -- 13
2017-11-20 20:00:00 25 7 Este 21 Nordeste 0 -- -- 13
2017-11-20 19:00:00 25.1 9 Este 31 Nordeste 0 -- -- 13
2017-11-20 18:00:00 25.9 8 Este 28 Sur 0 -- -- 14
2017-11-20 17:00:00 27.7 8 Nordeste 32 Nordeste 0 -- -- 13
2017-11-20 16:00:00 27.9 10 Norte 35 Sur 0 -- -- 14
2017-11-20 15:00:00 28 10 Este 29 Sur 0 -- -- 19
2017-11-20 14:00:00 28 10 Este 31 Este 0 -- -- 21
2017-11-20 13:00:00 28.1 9 Norte 27 Nordeste 0 -- -- 24
2017-11-20 12:00:00 27.2 8 Norte 34 Sudoeste 0 -- -- 23
2017-11-20 11:00:00 25.9 7 Noroeste 23 Sudoeste 0 -- -- 35
2017-11-20 10:00:00 20.4 0 Calma 4 Sur 0 -- -- 70
2017-11-20 09:00:00 18.3 0 Calma 5 Este 0 -- -- 78
2017-11-20 08:00:00 17.9 6 Este 9 Este 0 -- -- 73
2017-11-20 07:00:00 17 4 Norte 10 Este 0 -- -- 82
2017-11-20 06:00:00 17.9 6 Este 10 Nordeste 0 -- -- 69
2017-11-20 05:00:00 18.4 7 Este 10 Este 0 -- -- 72
2017-11-20 04:00:00 18.4 3 Este 7 Nordeste 0 -- -- 78
2017-11-20 03:00:00 18.2 3 Este 6 Nordeste 0 -- -- 76
2017-11-20 02:00:00 19 4 Este 9 Este 0 -- -- 75
2017-11-20 01:00:00 18.6 7 Este 10 Este 0 -- -- 72
2017-11-20 00:00:00 17.4 0 Calma 5 Este 0 -- -- 78
2017-11-19 23:00:00 18.1 2 Este 6 Este 0 -- -- 70
2017-11-19 22:00:00 18.5 0 Calma 6 Nordeste 0 -- -- 70
2017-11-19 21:00:00 18.8 0 Calma 6 Este 0 -- -- 68
2017-11-19 20:00:00 19.7 2 Este 6 Sur 0 -- -- 67
2017-11-19 19:00:00 20.3 0 Calma 6 Oeste 0 -- -- 67
2017-11-19 18:00:00 22.3 3 Sudoeste 11 Sudoeste 0 -- -- 59
2017-11-19 17:00:00 23.8 5 Sudoeste 16 Norte 0 -- -- 55
2017-11-19 16:00:00 24.4 7 Oeste 19 Oeste 0 -- -- 53
2017-11-19 15:00:00 24.5 8 Oeste 18 Sudoeste 0 -- -- 54
2017-11-19 14:00:00 24 8 Noroeste 17 Oeste 0 -- -- 59
2017-11-19 13:00:00 24.3 9 Sudoeste 17 Sudoeste 0 -- -- 52
2017-11-19 12:00:00 24.3 9 Oeste 17 Oeste 0 -- -- 56
2017-11-19 11:00:00 23.1 5 Oeste 10 Noroeste 0 -- -- 60
2017-11-19 10:00:00 20.6 3 Sudoeste 7 Sudoeste 0 -- -- 69
2017-11-19 09:00:00 18.5 0 Calma 9 Este 0 -- -- 77
2017-11-19 08:00:00 18.8 4 Nordeste 12 Nordeste 0 -- -- 74
2017-11-19 07:00:00 18.2 5 Nordeste 10 Norte 0 -- -- 76
2017-11-19 06:00:00 18.5 4 Este 10 Este 0 -- -- 74
2017-11-19 05:00:00 19 5 Este 10 Este 0 -- -- 71
2017-11-19 04:00:00 19.1 8 Este 12 Este 0 -- -- 68
2017-11-19 03:00:00 18.4 2 Nordeste 7 Nordeste 0 -- -- 77
2017-11-19 02:00:00 18.2 0 Calma 6 Oeste 0 -- -- 75
2017-11-19 01:00:00 18.6 3 Este 10 Nordeste 0 -- -- 74
2017-11-19 00:00:00 17.6 0 Calma 6 Sudeste 0 -- -- 75
2017-11-18 23:00:00 17.9 3 Sur 12 Nordeste 0 -- -- 74
2017-11-18 22:00:00 19.4 4 Nordeste 10 Nordeste 0 -- -- 70
2017-11-18 21:00:00 19.7 2 Sudeste 8 Sudeste 0 -- -- 72
2017-11-18 20:00:00 19.5 4 Sur 6 Sudeste 0 -- -- 73
2017-11-18 19:00:00 20.3 2 Oeste 10 Oeste 0 -- -- 70
2017-11-18 18:00:00 21.1 4 Oeste 8 Oeste 0 -- -- 69
2017-11-18 17:00:00 21.7 4 Oeste 12 Oeste 0 -- -- 68
2017-11-18 16:00:00 23.1 6 Oeste 12 Oeste 0 -- -- 64
2017-11-18 15:00:00 22.8 4 Oeste 14 Oeste 0 -- -- 62
2017-11-18 14:00:00 23.6 6 Oeste 15 Oeste 0 -- -- 58
2017-11-18 13:00:00 23.2 9 Oeste 15 Noroeste 0 -- -- 60
2017-11-18 12:00:00 24 4 Oeste 18 Sur 0 -- -- 57
2017-11-18 11:00:00 24.1 9 Oeste 18 Sudoeste 0 -- -- 55
2017-11-18 10:00:00 21.7 7 Sudoeste 13 Sudoeste 0 -- -- 64
2017-11-18 09:00:00 19.5 2 Este 6 Este 0 -- -- 76
2017-11-18 08:00:00 18.3 4 Este 9 Este 0 -- -- 76
2017-11-18 07:00:00 18.3 6 Este 10 Este 0 -- -- 73
2017-11-18 06:00:00 18.5 7 Nordeste 12 Este 0 -- -- 74
2017-11-18 05:00:00 19 4 Nordeste 9 Oeste 0 -- -- 83
2017-11-18 04:00:00 19.1 3 Noroeste 11 Noroeste 0 -- -- 82
2017-11-18 03:00:00 19.1 0 Calma 5 Norte 0 -- -- 76
2017-11-18 02:00:00 19.7 2 Norte 8 Nordeste 0 -- -- 76
2017-11-18 01:00:00 19.8 2 Noroeste 16 Oeste 0 -- -- 79
2017-11-18 00:00:00 19.2 0 Calma 6 Oeste 0 -- -- 79
2017-11-17 23:00:00 19.1 3 Sudoeste 6 Sur 0 -- -- 77
2017-11-17 22:00:00 19.6 3 Sudeste 10 Nordeste 0 -- -- 74
2017-11-17 21:00:00 20 3 Nordeste 12 Nordeste 0 -- -- 73
2017-11-17 20:00:00 20 4 Noroeste 9 Noroeste 0 -- -- 74
2017-11-17 19:00:00 20.2 3 Oeste 21 Sudoeste 0 -- -- 71
2017-11-17 18:00:00 20.7 3 Noroeste 11 Oeste 0 -- -- 70
2017-11-17 17:00:00 21.2 3 Noroeste 8 Sudoeste 0 -- -- 72
2017-11-17 16:00:00 22 4 Oeste 11 Sudoeste 0 -- -- 69
2017-11-17 15:00:00 21.8 4 Oeste 13 Oeste 0 -- -- 71
2017-11-17 14:00:00 23.1 7 Oeste 15 Oeste 0 -- -- 67
2017-11-17 13:00:00 21.5 5 Oeste 18 Noroeste 0 -- -- 72
2017-11-17 12:00:00 23.3 6 Oeste 13 Oeste 0 -- -- 65
2017-11-17 11:00:00 22 7 Oeste 14 Oeste 0 -- -- 68
2017-11-17 10:00:00 21.2 4 Oeste 10 Sudoeste 0 -- -- 70
2017-11-17 09:00:00 19.6 4 Este 8 Este 0 -- -- 72
2017-11-17 08:00:00 18.8 3 Nordeste 13 Este 0 -- -- 76
2017-11-17 07:00:00 18 5 Noroeste 13 Noroeste 0 -- -- 81
2017-11-17 06:00:00 17.7 4 Nordeste 9 Este 0 -- -- 75
2017-11-17 05:00:00 18.3 5 Este 13 Nordeste 0 -- -- 74
2017-11-17 04:00:00 18.6 4 Nordeste 9 Nordeste 0 -- -- 78
2017-11-17 03:00:00 17.5 2 Noroeste 7 Noroeste 0 -- -- 82
2017-11-17 02:00:00 17.8 4 Este 14 Sudeste 0 -- -- 76
2017-11-17 01:00:00 18.3 2 Norte 15 Sudeste 0 -- -- 73
2017-11-17 00:00:00 18.5 3 Este 9 Nordeste 0 -- -- 76
2017-11-16 23:00:00 18.3 5 Este 9 Este 0 -- -- 75
2017-11-16 22:00:00 18.4 2 Nordeste 10 Sudeste 0 -- -- 72
2017-11-16 21:00:00 19.2 7 Nordeste 12 Nordeste 0 -- -- 71
2017-11-16 20:00:00 19.5 2 Oeste 8 Noroeste 0 -- -- 70
2017-11-16 19:00:00 20.2 5 Noroeste 14 Oeste 0 -- -- 67
2017-11-16 18:00:00 20.9 2 Norte 11 Noroeste 0 -- -- 70
2017-11-16 17:00:00 21.3 5 Oeste 11 Noroeste 0 -- -- 68
2017-11-16 16:00:00 21.9 4 Sudoeste 15 Sudoeste 0 -- -- 67
2017-11-16 15:00:00 22.9 6 Oeste 12 Oeste 0 -- -- 64
2017-11-16 14:00:00 22.3 6 Sudoeste 13 Noroeste 0 -- -- 66
2017-11-16 13:00:00 22.6 7 Oeste 13 Oeste 0 -- -- 66
2017-11-16 12:00:00 22.8 4 Oeste 13 Sudoeste 0 -- -- 64
2017-11-16 11:00:00 23 5 Oeste 15 Sudoeste 0 -- -- 64
2017-11-16 10:00:00 21.6 6 Oeste 11 Noroeste -- -- -- 68
2017-11-16 09:00:00 18.8 3 Oeste 9 Oeste 0 -- -- 76
2017-11-16 08:00:00 17.8 0 Calma 5 Oeste 0 -- -- 76
2017-11-16 07:00:00 18.3 3 Noroeste 9 Norte 0 -- -- 74
2017-11-16 06:00:00 18.3 3 Oeste 11 Noroeste 0 -- -- 76
2017-11-16 05:00:00 18.7 0 Calma 12 Oeste 0 -- -- 76
2017-11-16 04:00:00 19.4 3 Oeste 14 Noroeste 0 -- -- 74
2017-11-16 03:00:00 20 4 Noroeste 12 Oeste 0 -- -- 71
2017-11-16 02:00:00 19.9 3 Sur 6 Sur 0 -- -- 68
2017-11-16 01:00:00 20 3 Sur 5 Sur 0 -- -- 67
2017-11-16 00:00:00 20 3 Norte 5 Norte 0 -- -- 72
2017-11-15 23:00:00 20.2 3 Nordeste 12 Oeste 0 -- -- 71
2017-11-15 22:00:00 20.2 3 Oeste 11 Oeste 0 -- -- 72
2017-11-15 21:00:00 20.3 2 Oeste 9 Oeste 0 -- -- 71
2017-11-15 20:00:00 20.4 3 Sur 10 Este 0 -- -- 71
2017-11-15 19:00:00 20.4 3 Noroeste 13 Oeste 0 -- -- 70
2017-11-15 18:00:00 20.7 5 Norte 12 Noroeste 0 -- -- 67
2017-11-15 17:00:00 21.1 5 Noroeste 15 Noroeste 0 -- -- 66
2017-11-15 16:00:00 21.4 6 Noroeste 21 Nordeste 0 -- -- 65
2017-11-15 15:00:00 21.5 9 Noroeste 26 Norte 0 -- -- 65
2017-11-15 14:00:00 22.4 9 Noroeste 22 Norte 0 -- -- 60
2017-11-15 13:00:00 25.1 7 Oeste 13 Oeste 0 -- -- 54
2017-11-15 12:00:00 21.5 2 Noroeste 9 Sudoeste 0 -- -- 64
2017-11-15 11:00:00 20.9 3 Sur 7 Sur 0 -- -- 67
2017-11-15 10:00:00 20.3 0 Calma 9 Oeste 0 -- -- 70
2017-11-15 09:00:00 19.9 0 Calma 5 Sur 0 -- -- 69
2017-11-15 08:00:00 19.7 0 Calma 4 Sur 0 -- -- 70
2017-11-15 07:00:00 19.7 0 Calma 4 Norte 0 -- -- 71
2017-11-15 06:00:00 19.8 4 Norte 10 Noroeste 0 -- -- 72
2017-11-15 05:00:00 19.8 5 Norte 15 Norte 0 -- -- 72
2017-11-15 04:00:00 19.9 6 Oeste 15 Sudoeste 0 -- -- 72
2017-11-15 03:00:00 19.9 4 Noroeste 9 Noroeste 0 -- -- 73
2017-11-15 02:00:00 20.1 5 Oeste 12 Noroeste 0 -- -- 74
2017-11-15 01:00:00 20.3 3 Oeste 12 Norte 0 -- -- 71
2017-11-15 00:00:00 20.4 4 Oeste 19 Oeste 0 -- -- 71
2017-11-14 23:00:00 20.4 5 Sur 12 Sudeste 0 -- -- 68
2017-11-14 22:00:00 20.3 4 Sudoeste 11 Nordeste 0 -- -- 65
2017-11-14 21:00:00 20.1 7 Nordeste 20 Nordeste 0 -- -- 64
2017-11-14 20:00:00 20.7 10 Nordeste 19 Nordeste 0 -- -- 62
2017-11-14 19:00:00 20.8 2 Norte 6 Noroeste 0 -- -- 63
2017-11-14 18:00:00 21.3 3 Oeste 17 Oeste 0 -- -- 62
2017-11-14 17:00:00 21.9 5 Oeste 19 Sudoeste 0 -- -- 60
2017-11-14 16:00:00 24.3 9 Oeste 17 Oeste 0 -- -- 58
2017-11-14 15:00:00 21.7 5 Noroeste 18 Noroeste 0 -- -- 66
2017-11-14 14:00:00 21.8 7 Oeste 21 Sudoeste 0 -- -- 67
2017-11-14 13:00:00 24.4 11 Oeste 24 Oeste 0 -- -- 59
2017-11-14 12:00:00 24 9 Oeste 17 Sudoeste 0 -- -- 58
2017-11-14 11:00:00 22.7 6 Sudoeste 13 Sudoeste 0 -- -- 61
2017-11-14 10:00:00 22.4 5 Oeste 10 Noroeste 0 -- -- 62
2017-11-14 09:00:00 20.4 4 Sur 9 Sudeste 0 -- -- 64
2017-11-14 08:00:00 19.1 0 Calma 11 Este 0 -- -- 70
2017-11-14 07:00:00 19.5 2 Este 8 Nordeste 0 -- -- 69
2017-11-14 06:00:00 19.9 3 Este 10 Sudeste 0 -- -- 70
2017-11-14 05:00:00 20 3 Oeste 9 Norte 0 -- -- 73
2017-11-14 04:00:00 19.7 3 Norte 13 Sudeste 0 -- -- 74
2017-11-14 03:00:00 19.8 4 Sur 12 Sudeste 0 -- -- 70
2017-11-14 02:00:00 20 0 Calma 15 Nordeste 0 -- -- 72
2017-11-14 01:00:00 20.2 0 Calma 7 Sudoeste 0 -- -- 74
2017-11-14 00:00:00 19.8 0 Calma 6 Norte 0 -- -- 76
2017-11-13 23:00:00 19.6 0 Calma 8 Sudeste 0 -- -- 77
2017-11-13 22:00:00 19.7 3 Sudeste 9 Sudeste 0 -- -- 78
2017-11-13 21:00:00 19.3 0 Calma 4 Este 0 -- -- 77
2017-11-13 20:00:00 20.1 0 Calma 5 Sur 0 -- -- 76
2017-11-13 19:00:00 20.6 0 Calma 10 Oeste 0 -- -- 76
2017-11-13 18:00:00 21.4 9 Sudoeste 20 Sudoeste 0 -- -- 72
2017-11-13 17:00:00 22 8 Oeste 17 Sudoeste 0 -- -- 73
2017-11-13 16:00:00 22.6 7 Sudoeste 17 Sudoeste 0 -- -- 74
2017-11-13 15:00:00 23.5 9 Sudoeste 18 Sudoeste 0 -- -- 70
2017-11-13 14:00:00 24.2 7 Oeste 18 Oeste 0 -- -- 68
2017-11-13 13:00:00 24.4 8 Oeste 18 Sudoeste 0 -- -- 63
2017-11-13 12:00:00 24.3 9 Oeste 19 Oeste 0 -- -- 65
2017-11-13 11:00:00 23.6 6 Oeste 12 Sudoeste 0 -- -- 71
2017-11-13 10:00:00 21.9 3 Sur 7 Sudoeste 0 -- -- 77
2017-11-13 09:00:00 19.2 0 Calma 4 Este 0 -- -- 89
2017-11-13 08:00:00 18.9 2 Este 6 Nordeste 0 -- -- 88
2017-11-13 07:00:00 19 0 Calma 8 Nordeste 0 -- -- 88
2017-11-13 06:00:00 19.1 4 Este 6 Este 0 -- -- 88
2017-11-13 05:00:00 18.3 0 Calma 9 Nordeste 0 -- -- 84
2017-11-13 04:00:00 19.3 0 Calma 13 Nordeste 0 -- -- 80
2017-11-13 03:00:00 19.8 0 Calma 11 Nordeste 0 -- -- 84
2017-11-13 02:00:00 19.9 4 Este 7 Este 0 -- -- 87
2017-11-13 01:00:00 19.4 0 Calma 4 Norte 0 -- -- 88
2017-11-13 00:00:00 19.9 4 Nordeste 8 Norte 0 -- -- 87
2017-11-12 23:00:00 19.7 3 Nordeste 4 Nordeste 0 -- -- 88
2017-11-12 22:00:00 19.9 0 Calma 5 Sudoeste 0 -- -- 83
2017-11-12 21:00:00 21 3 Sudeste 4 Sur 0 -- -- 82
2017-11-12 20:00:00 21.2 0 Calma 5 Sudoeste 0 -- -- 80
2017-11-12 19:00:00 22.1 0 Calma 6 Sudoeste 0 -- -- 75
2017-11-12 18:00:00 24.1 4 Oeste 10 Oeste 0 -- -- 64
2017-11-12 17:00:00 26.5 5 Oeste 12 Sudoeste 0 -- -- 57
2017-11-12 16:00:00 27.6 6 Oeste 14 Oeste 0 -- -- 55
2017-11-12 15:00:00 28.2 6 Oeste 14 Sudoeste 0 -- -- 55
2017-11-12 14:00:00 27.5 9 Oeste 15 Sudoeste 0 -- -- 58
2017-11-12 13:00:00 28 6 Oeste 11 Oeste 0 -- -- 56
2017-11-12 12:00:00 26.5 6 Oeste 12 Oeste 0 -- -- 60
2017-11-12 11:00:00 25.3 5 Oeste 9 Sudoeste 0 -- -- 69
2017-11-12 10:00:00 24 3 Sudoeste 8 Sur 0 -- -- 70
2017-11-12 09:00:00 21.4 3 Sudoeste 13 Oeste 0 -- -- 75
2017-11-12 08:00:00 19.2 2 Sudeste 6 Nordeste 0 -- -- 74
2017-11-12 07:00:00 20.1 2 Este 5 Este 0 -- -- 82
2017-11-12 06:00:00 19.7 3 Sur 8 Sudeste 0 -- -- 83
2017-11-12 05:00:00 19.9 0 Calma 7 Sudeste 0 -- -- 68
2017-11-12 04:00:00 20.8 3 Sur 8 Sudeste 0 -- -- 86
2017-11-12 03:00:00 21.4 4 Sur 10 Oeste 0 -- -- 80
2017-11-12 02:00:00 21.7 2 Este 12 Sudoeste 0 -- -- 58
2017-11-12 01:00:00 21.4 3 Sudoeste 8 Sur 0 -- -- 52
2017-11-12 00:00:00 19.9 4 Sur 9 Este 0 -- -- 74
2017-11-11 23:00:00 20.3 0 Calma 10 Sudoeste 0 -- -- 75
2017-11-11 22:00:00 20.8 2 Sur 5 Sudoeste 0 -- -- 76
2017-11-11 21:00:00 20.3 0 Calma 4 Nordeste 0 -- -- 79
2017-11-11 20:00:00 20.5 4 Nordeste 5 Este 0 -- -- 80
2017-11-11 19:00:00 21.7 0 Calma 5 Sudoeste 0 -- -- 75
2017-11-11 18:00:00 23.2 0 Calma 8 Sudoeste 0 -- -- 69
2017-11-11 17:00:00 25 6 Sudoeste 18 Oeste 0 -- -- 67
2017-11-11 16:00:00 25.3 7 Oeste 15 Oeste 0 -- -- 67
2017-11-11 15:00:00 26.6 5 Oeste 13 Oeste 0 -- -- 63
2017-11-11 14:00:00 26.2 8 Oeste 15 Sudoeste 0 -- -- 65
2017-11-11 13:00:00 26.2 8 Oeste 15 Oeste 0 -- -- 65
2017-11-11 12:00:00 25.9 6 Sudoeste 13 Sudoeste 0 -- -- 65
2017-11-11 11:00:00 25.8 6 Sudoeste 10 Sudoeste 0 -- -- 62
2017-11-11 10:00:00 23.8 6 Sudoeste 12 Oeste 0 -- -- 65
2017-11-11 09:00:00 21.3 2 Sur 6 Sur 0 -- -- 69
2017-11-11 08:00:00 20.2 3 Nordeste 6 Nordeste 0 -- -- 77
2017-11-11 07:00:00 19.1 4 Nordeste 9 Sudeste 0 -- -- 76
2017-11-11 06:00:00 19.5 2 Sudeste 5 Sudoeste 0 -- -- 76
2017-11-11 05:00:00 19.2 3 Nordeste 9 Sudeste 0 -- -- 74
2017-11-11 04:00:00 20 5 Sur 9 Sudoeste 0 -- -- 74
2017-11-11 03:00:00 19.3 3 Sudeste 10 Sur 0 -- -- 76
2017-11-11 02:00:00 20.1 4 Sudoeste 9 Sudoeste 0 -- -- 77
2017-11-11 01:00:00 19.9 3 Este 9 Norte 0 -- -- 73
2017-11-11 00:00:00 20.1 3 Este 7 Nordeste 0 -- -- 77
2017-11-10 23:00:00 20.2 3 Sudeste 6 Este 0 -- -- 76
2017-11-10 22:00:00 19.7 0 Calma 3 Este 0 -- -- 76
2017-11-10 21:00:00 20.6 3 Sudeste 4 Sudeste 0 -- -- 72
2017-11-10 20:00:00 21.1 0 Calma 2 Sur 0 -- -- 72
2017-11-10 19:00:00 21.8 0 Calma 3 Norte 0 -- -- 68
2017-11-10 18:00:00 22.6 0 Calma 10 Sudoeste 0 -- -- 67
2017-11-10 17:00:00 24.9 7 Sudoeste 17 Oeste 0 -- -- 58
2017-11-10 16:00:00 26.3 6 Sudoeste 14 Sudoeste 0 -- -- 51
2017-11-10 15:00:00 26.5 8 Sudoeste 15 Sudoeste 0 -- -- 48
2017-11-10 14:00:00 26.6 8 Oeste 15 Sudoeste 0 -- -- 51
2017-11-10 13:00:00 26 8 Oeste 17 Sudoeste 0 -- -- 50
2017-11-10 12:00:00 25.7 7 Sudoeste 14 Sudoeste 0 -- -- 56
2017-11-10 11:00:00 24.6 7 Sudoeste 13 Oeste 0 -- -- 61
2017-11-10 10:00:00 22.3 0 Calma 5 Sudoeste 0 -- -- 72
2017-11-10 09:00:00 19.1 0 Calma 7 Este 0 -- -- 77
2017-11-10 08:00:00 16.8 0 Calma 5 Sudeste 0 -- -- 77
2017-11-10 07:00:00 17.2 0 Calma 4 Nordeste 0 -- -- 78
2017-11-10 06:00:00 17.7 0 Calma 7 Norte 0 -- -- 79
2017-11-10 05:00:00 17.8 0 Calma 10 Este 0 -- -- 82
2017-11-10 04:00:00 18.3 2 Nordeste 10 Este 0 -- -- 84
2017-11-10 03:00:00 18.8 2 Nordeste 7 Norte 0 -- -- 84
2017-11-10 02:00:00 17.9 0 Calma 4 Nordeste 0 -- -- 80
2017-11-10 01:00:00 18.2 0 Calma 10 Este 0 -- -- 79
2017-11-10 00:00:00 19.7 5 Este 9 Este 0 -- -- 71
2017-11-09 23:00:00 19.8 0 Calma 4 Nordeste 0 -- -- 80
2017-11-09 22:00:00 20 0 Calma 2 Sur 0 -- -- 72
2017-11-09 21:00:00 21.1 3 Este 8 Sudeste 0 -- -- 68
2017-11-09 20:00:00 21.6 0 Calma 5 Noroeste 0 -- -- 72
2017-11-09 19:00:00 22 3 Noroeste 12 Oeste 0 -- -- 69
2017-11-09 18:00:00 23.9 5 Noroeste 14 Sudoeste 0 -- -- 60
2017-11-09 17:00:00 25.9 5 Oeste 13 Sudoeste 0 -- -- 52
2017-11-09 16:00:00 26.1 8 Oeste 15 Sudoeste 0 -- -- 57
2017-11-09 15:00:00 25.6 8 Sudoeste 15 Sudoeste 0 -- -- 61
2017-11-09 14:00:00 25.6 10 Oeste 22 Sudoeste 0 -- -- 61
2017-11-09 13:00:00 25.8 9 Oeste 20 Noroeste 0 -- -- 58
2017-11-09 12:00:00 25.4 8 Oeste 19 Oeste 0 -- -- 58
2017-11-09 11:00:00 25.1 8 Oeste 13 Oeste 0 -- -- 59
2017-11-09 10:00:00 23.4 3 Oeste 7 Sudoeste 0 -- -- 66
2017-11-09 09:00:00 21.3 2 Sudeste 6 Nordeste 0 -- -- 73
2017-11-09 08:00:00 20.6 4 Nordeste 12 Norte 0 -- -- 76
2017-11-09 07:00:00 20.2 4 Norte 7 Norte 0 -- -- 78
2017-11-09 06:00:00 19.8 0 Calma 5 Este 0 -- -- 78
2017-11-09 05:00:00 20 0 Calma 6 Sudeste 0 -- -- 77
2017-11-09 04:00:00 20.7 2 Sudeste 6 Sudeste 0 -- -- 76
2017-11-09 03:00:00 20.4 0 Calma 8 Norte 0 -- -- 75
2017-11-09 02:00:00 20.8 3 Norte 12 Norte 0 -- -- 74
2017-11-09 01:00:00 20.4 3 Nordeste 5 Nordeste 0 -- -- 75
2017-11-09 00:00:00 20.9 2 Este 9 Este 0 -- -- 72
2017-11-08 23:00:00 21 0 Calma 8 Norte 0 -- -- 74
2017-11-08 22:00:00 21.8 3 Noroeste 14 Nordeste 0 -- -- 73
2017-11-08 21:00:00 22.3 2 Noroeste 15 Noroeste 0 -- -- 75
2017-11-08 20:00:00 22.5 3 Noroeste 9 Norte 0 -- -- 72
2017-11-08 19:00:00 22.7 5 Norte 17 Este 0 -- -- 72
2017-11-08 18:00:00 24 5 Noroeste 21 Sudoeste 0 -- -- 69
2017-11-08 17:00:00 24.6 5 Oeste 23 Oeste 0 -- -- 66
2017-11-08 16:00:00 26.7 13 Sudoeste 22 Sudoeste 0 -- -- 55
2017-11-08 15:00:00 27.1 7 Sudoeste 17 Sudoeste 0 -- -- 49
2017-11-08 14:00:00 26.9 8 Sudoeste 19 Sudoeste 0 -- -- 50
2017-11-08 13:00:00 26.2 9 Oeste 18 Oeste 0 -- -- 53
2017-11-08 12:00:00 25.8 8 Sudoeste 17 Sudoeste 0 -- -- 54
2017-11-08 11:00:00 25 8 Sudoeste 18 Sudoeste 0 -- -- 61
2017-11-08 10:00:00 23.2 4 Sudoeste 8 Sudoeste 0 -- -- 60
2017-11-08 09:00:00 19.3 0 Calma 10 Este 0 -- -- 70
2017-11-08 08:00:00 19.3 7 Este 15 Este 0 -- -- 67
2017-11-08 07:00:00 19.2 8 Este 12 Este 0 -- -- 75
2017-11-08 06:00:00 18.9 0 Calma 9 Nordeste 0 -- -- 78
2017-11-08 05:00:00 19.3 4 Norte 8 Norte 0 -- -- 79
2017-11-08 04:00:00 19.3 4 Norte 8 Noroeste 0 -- -- 80
2017-11-08 03:00:00 19.9 5 Este 15 Nordeste 0 -- -- 74
2017-11-08 02:00:00 19.9 9 Nordeste 13 Nordeste 0 -- -- 71
2017-11-08 01:00:00 19.5 2 Sur 6 Norte 0 -- -- 76
2017-11-08 00:00:00 20 4 Nordeste 7 Nordeste 0 -- -- 73
2017-11-07 23:00:00 20.1 3 Sudeste 6 Este 0 -- -- 70
2017-11-07 22:00:00 20.2 4 Sudeste 6 Norte 0 -- -- 74
2017-11-07 21:00:00 20.8 4 Norte 10 Noroeste 0 -- -- 76
2017-11-07 20:00:00 20.5 4 Norte 9 Noroeste 0 -- -- 75
2017-11-07 19:00:00 21.3 2 Norte 13 Sudoeste 0 -- -- 71
2017-11-07 18:00:00 23.6 6 Sudoeste 15 Sudoeste 0 -- -- 59
2017-11-07 17:00:00 25.3 4 Oeste 14 Oeste 0 -- -- 53
2017-11-07 16:00:00 24.7 6 Oeste 15 Sudoeste 0 -- -- 58
2017-11-07 15:00:00 25.6 9 Oeste 19 Sudoeste 0 -- -- 53
2017-11-07 14:00:00 26 6 Sudoeste 16 Sudoeste 0 -- -- 52
2017-11-07 13:00:00 26.2 8 Sudoeste 17 Oeste 0 -- -- 47
2017-11-07 12:00:00 25.3 6 Sudoeste 15 Oeste 0 -- -- 46
2017-11-07 11:00:00 23.3 5 Noroeste 10 Noroeste 0 -- -- 58
2017-11-07 10:00:00 22.5 5 Sudoeste 9 Sudoeste 0 -- -- 60
2017-11-07 09:00:00 19.3 0 Calma 5 Nordeste 0 -- -- 72
2017-11-07 08:00:00 18 0 Calma 11 Nordeste 0 -- -- 73
2017-11-07 07:00:00 18.1 0 Calma 8 Este 0 -- -- 74
2017-11-07 06:00:00 18.9 6 Este 12 Este 0 -- -- 61
2017-11-07 05:00:00 18.6 3 Este 8 Este 0 -- -- 73
2017-11-07 04:00:00 18.7 4 Nordeste 9 Este 0 -- -- 70
2017-11-07 03:00:00 18.4 3 Nordeste 4 Nordeste 0 -- -- 75
2017-11-07 02:00:00 18.9 3 Nordeste 7 Norte 0 -- -- 70
2017-11-07 01:00:00 19 0 Calma 10 Nordeste 0 -- -- 68
2017-11-07 00:00:00 19.9 6 Este 14 Nordeste 0 -- -- 63
2017-11-06 23:00:00 19.3 3 Sudeste 6 Norte 0 -- -- 71
2017-11-06 22:00:00 19.9 3 Nordeste 6 Norte 0 -- -- 67
2017-11-06 21:00:00 19.9 2 Norte 4 Noroeste 0 -- -- 68
2017-11-06 20:00:00 20 0 Calma 2 Oeste 0 -- -- 66
2017-11-06 19:00:00 21.3 0 Calma 9 Sudoeste 0 -- -- 63
2017-11-06 18:00:00 23.1 5 Oeste 14 Oeste 0 -- -- 59
2017-11-06 17:00:00 24.6 7 Sudoeste 15 Oeste 0 -- -- 52
2017-11-06 16:00:00 25.1 9 Sudoeste 16 Sudoeste 0 -- -- 48
2017-11-06 15:00:00 23.4 8 Sudoeste 16 Sudoeste 0 -- -- 58
2017-11-06 14:00:00 24.9 8 Oeste 19 Oeste 0 -- -- 51
2017-11-06 13:00:00 24.2 6 Oeste 15 Sudoeste 0 -- -- 54
2017-11-06 12:00:00 24.2 8 Oeste 18 Oeste 0 -- -- 52
2017-11-06 11:00:00 24.2 8 Oeste 14 Oeste 0 -- -- 55
2017-11-06 10:00:00 22.7 4 Norte 9 Oeste 0 -- -- 56
2017-11-06 09:00:00 19.3 0 Calma 10 Este 0 -- -- 65
2017-11-06 08:00:00 18.7 9 Este 14 Este 0 -- -- 61
2017-11-06 07:00:00 17.9 0 Calma 10 Este 0 -- -- 70
2017-11-06 06:00:00 18.7 7 Este 13 Este 0 -- -- 65
2017-11-06 05:00:00 18.9 6 Este 13 Este 0 -- -- 59
2017-11-06 04:00:00 18.6 5 Este 11 Este 0 -- -- 66
2017-11-06 03:00:00 19.4 6 Este 11 Este 0 -- -- 63
2017-11-06 02:00:00 19.6 4 Nordeste 10 Nordeste 0 -- -- 64
2017-11-06 01:00:00 18.9 0 Calma 10 Este 0 -- -- 64
2017-11-06 00:00:00 19.8 3 Este 5 Norte 0 -- -- 62
2017-11-05 23:00:00 19.7 2 Norte 11 Nordeste 0 -- -- 60
2017-11-05 22:00:00 20.4 5 Nordeste 12 Nordeste 0 -- -- 59
2017-11-05 21:00:00 20.7 2 Este 9 Nordeste 0 -- -- 57
2017-11-05 20:00:00 21.1 2 Noroeste 8 Norte 0 -- -- 57
2017-11-05 19:00:00 21.6 3 Noroeste 7 Norte 0 -- -- 57
2017-11-05 18:00:00 24.3 3 Sudoeste 15 Oeste 0 -- -- 50
2017-11-05 17:00:00 25.4 10 Oeste 18 Oeste 0 -- -- 48
2017-11-05 16:00:00 25.5 10 Sudoeste 19 Sudoeste 0 -- -- 47
2017-11-05 15:00:00 25.6 10 Oeste 20 Oeste 0 -- -- 48
2017-11-05 14:00:00 24.7 9 Sudoeste 16 Oeste 0 -- -- 51
2017-11-05 13:00:00 22.9 5 Oeste 15 Sudoeste 0 -- -- 54
2017-11-05 12:00:00 22.9 8 Oeste 18 Sudoeste 0 -- -- 58
2017-11-05 11:00:00 24 8 Oeste 18 Oeste 0 -- -- 53
2017-11-05 10:00:00 23.1 5 Noroeste 18 Oeste 0 -- -- 52
2017-11-05 09:00:00 19.9 2 Nordeste 9 Este 0 -- -- 65
2017-11-05 08:00:00 18.9 7 Este 12 Nordeste 0 -- -- 58
2017-11-05 07:00:00 18.7 8 Este 12 Este 0 -- -- 67
2017-11-05 06:00:00 18.8 4 Nordeste 9 Nordeste 0 -- -- 69
2017-11-05 05:00:00 18.4 4 Nordeste 7 Nordeste 0 -- -- 70
2017-11-05 04:00:00 18.4 4 Este 9 Este 0 -- -- 70
2017-11-05 03:00:00 18.6 3 Este 7 Este 0 -- -- 68
2017-11-05 02:00:00 20.1 3 Norte 13 Nordeste 0 -- -- 66
2017-11-05 01:00:00 20.1 5 Nordeste 14 Norte 0 -- -- 67
2017-11-05 00:00:00 19.6 2 Nordeste 6 Este 0 -- -- 66
2017-11-04 23:00:00 20.4 4 Este 8 Nordeste 0 -- -- 64
2017-11-04 22:00:00 20.6 3 Sudeste 6 Noroeste 0 -- -- 65
2017-11-04 21:00:00 21.4 2 Noroeste 8 Noroeste 0 -- -- 63
2017-11-04 20:00:00 21.7 2 Noroeste 15 Este 0 -- -- 61
2017-11-04 19:00:00 22.3 0 Calma 6 Oeste 0 -- -- 58
2017-11-04 18:00:00 24.2 4 Oeste 15 Oeste 0 -- -- 55
2017-11-04 17:00:00 24.8 9 Oeste 18 Sudoeste 0 -- -- 55
2017-11-04 16:00:00 25.5 9 Oeste 21 Sudoeste 0 -- -- 54
2017-11-04 15:00:00 25.4 9 Oeste 24 Oeste 0 -- -- 56
2017-11-04 14:00:00 25.4 9 Oeste 22 Oeste 0 -- -- 55
2017-11-04 13:00:00 25.2 10 Oeste 17 Oeste 0 -- -- 54
2017-11-04 12:00:00 24.3 10 Oeste 19 Oeste 0 -- -- 58
2017-11-04 11:00:00 23.8 8 Sudoeste 14 Sudoeste 0 -- -- 57
2017-11-04 10:00:00 22.9 2 Noroeste 10 Noroeste 0 -- -- 61
2017-11-04 09:00:00 19.5 0 Calma 6 Nordeste 0 -- -- 72
2017-11-04 08:00:00 18.9 0 Calma 9 Este 0 -- -- 72
2017-11-04 07:00:00 19.3 7 Este 11 Este 0 -- -- 68
2017-11-04 06:00:00 19.4 8 Este 11 Nordeste 0 -- -- 67
2017-11-04 05:00:00 19.3 7 Este 12 Este 0 -- -- 64
2017-11-04 04:00:00 19.7 5 Este 8 Este 0 -- -- 73
2017-11-04 03:00:00 19.7 2 Nordeste 11 Norte 0 -- -- 70
2017-11-04 02:00:00 20.4 4 Norte 9 Nordeste 0 -- -- 68
2017-11-04 01:00:00 20.6 0 Calma 7 Sur 0 -- -- 68
2017-11-04 00:00:00 21.5 2 Oeste 19 Nordeste 0 -- -- 63
2017-11-03 23:00:00 21.4 10 Nordeste 23 Nordeste 0 -- -- 65
2017-11-03 22:00:00 21.3 6 Nordeste 19 Nordeste 0 -- -- 65
2017-11-03 21:00:00 21.5 6 Este 13 Nordeste 0 -- -- 65
2017-11-03 20:00:00 21.2 2 Sudoeste 8 Sudoeste 0 -- -- 77
2017-11-03 19:00:00 21.5 4 Sudoeste 13 Sudoeste 0 -- -- 76
2017-11-03 18:00:00 22.8 7 Oeste 18 Sudoeste 0 -- -- 69
2017-11-03 17:00:00 24.2 11 Sudoeste 21 Oeste 0 -- -- 65
2017-11-03 16:00:00 25.1 8 Oeste 18 Sudoeste 0 -- -- 60
2017-11-03 15:00:00 24.2 7 Oeste 15 Oeste 0 -- -- 59
2017-11-03 14:00:00 24.7 8 Oeste 15 Noroeste 0 -- -- 52
2017-11-03 13:00:00 24.8 7 Oeste 17 Sudoeste 0 -- -- 56
2017-11-03 12:00:00 25.1 8 Oeste 16 Oeste 0 -- -- 56
2017-11-03 11:00:00 24 7 Oeste 14 Sudoeste 0 -- -- 58
2017-11-03 10:00:00 22.6 5 Oeste 10 Noroeste 0 -- -- 61
2017-11-03 09:00:00 19.1 0 Calma 6 Este 0 -- -- 69
2017-11-03 08:00:00 18.3 2 Este 6 Este 0 -- -- 71
2017-11-03 07:00:00 18.3 4 Este 6 Este 0 -- -- 67
2017-11-03 06:00:00 18.1 0 Calma 10 Este 0 -- -- 69
2017-11-03 05:00:00 18.5 8 Este 12 Nordeste 0 -- -- 65
2017-11-03 04:00:00 18.7 8 Este 10 Este 0 -- -- 66
2017-11-03 03:00:00 18.9 5 Este 12 Nordeste 0 -- -- 63
2017-11-03 02:00:00 19 5 Este 9 Este 0 -- -- 66
2017-11-03 01:00:00 19.6 4 Nordeste 14 Nordeste 0 -- -- 64
2017-11-03 00:00:00 19.9 6 Nordeste 13 Nordeste 0 -- -- 65
2017-11-02 23:00:00 20.2 7 Nordeste 12 Nordeste 0 -- -- 67
2017-11-02 22:00:00 20.3 4 Norte 9 Nordeste 0 -- -- 67
2017-11-02 21:00:00 20.7 2 Noroeste 8 Sudoeste 0 -- -- 65
2017-11-02 20:00:00 21 3 Sudoeste 9 Sudoeste 0 -- -- 64
2017-11-02 19:00:00 21.5 5 Sudoeste 10 Sudoeste 0 -- -- 62
2017-11-02 18:00:00 22.1 3 Sudoeste 14 Sudoeste 0 -- -- 60
2017-11-02 17:00:00 22.9 6 Oeste 20 Oeste 0 -- -- 58
2017-11-02 16:00:00 24.4 9 Sudoeste 24 Sudoeste 0 -- -- 54
2017-11-02 15:00:00 25.2 10 Oeste 23 Oeste 0 -- -- 51
2017-11-02 14:00:00 25.6 7 Sudoeste 21 Sudoeste 0 -- -- 51
2017-11-02 13:00:00 24.6 9 Sudoeste 18 Sudoeste 0 -- -- 52
2017-11-02 12:00:00 23.7 7 Sudoeste 18 Sudoeste 0 -- -- 55
2017-11-02 11:00:00 24.1 6 Oeste 14 Oeste 0 -- -- 54
2017-11-02 10:00:00 22.3 6 Sudoeste 10 Oeste 0 -- -- 58
2017-11-02 09:00:00 20.6 2 Sudoeste 4 Sur 0 -- -- 66
2017-11-02 08:00:00 19.4 0 Calma 8 Este 0 -- -- 67
2017-11-02 07:00:00 19.6 5 Este 13 Este 0 -- -- 64
2017-11-02 06:00:00 20.3 5 Nordeste 13 Norte 0 -- -- 63
2017-11-02 05:00:00 20.2 3 Nordeste 7 Nordeste 0 -- -- 66
2017-11-02 04:00:00 20.3 2 Sudeste 6 Este 0 -- -- 67
2017-11-02 03:00:00 20.1 4 Norte 7 Norte 0 -- -- 68
2017-11-02 02:00:00 19.6 0 Calma 5 Sur 0 -- -- 72
2017-11-02 01:00:00 19.2 0 Calma 5 Oeste 0 -- -- 72
2017-11-02 00:00:00 20.1 5 Nordeste 10 Nordeste 0 -- -- 67
2017-11-01 23:00:00 20.3 2 Norte 10 Este 0 -- -- 69
2017-11-01 22:00:00 20.5 0 Calma 6 Noroeste 0 -- -- 71
2017-11-01 21:00:00 21.1 2 Noroeste 10 Sudoeste 0 -- -- 69
2017-11-01 20:00:00 21.6 3 Sudoeste 10 Sudoeste 0 -- -- 69
2017-11-01 19:00:00 21.9 5 Sudoeste 11 Sudoeste 0 -- -- 68
2017-11-01 18:00:00 24 4 Sudoeste 13 Sudoeste 0 -- -- 61
2017-11-01 17:00:00 25.4 8 Oeste 15 Oeste 0 -- -- 57
2017-11-01 16:00:00 25.6 7 Oeste 17 Sudoeste 0 -- -- 55
2017-11-01 15:00:00 25.7 9 Oeste 19 Sudoeste 0 -- -- 55
2017-11-01 14:00:00 25.2 11 Oeste 21 Oeste 0 -- -- 58
2017-11-01 13:00:00 25.1 9 Oeste 21 Oeste 0 -- -- 60
2017-11-01 12:00:00 24.8 10 Oeste 19 Sudoeste 0 -- -- 60
2017-11-01 11:00:00 24.4 7 Oeste 12 Oeste 0 -- -- 60
2017-11-01 10:00:00 22.3 2 Oeste 6 Oeste 0 -- -- 66
2017-11-01 09:00:00 19 0 Calma 8 Norte 0 -- -- 82
2017-11-01 08:00:00 18.4 5 Nordeste 10 Este 0 -- -- 85
2017-11-01 07:00:00 18.5 5 Este 9 Este 0 -- -- 78
2017-11-01 06:00:00 18.4 6 Este 10 Este 0 -- -- 66
2017-11-01 05:00:00 18.6 7 Este 9 Este 0 -- -- 77
2017-11-01 04:00:00 18.5 4 Este 6 Nordeste 0 -- -- 86
2017-11-01 03:00:00 18.5 0 Calma 8 Este 0 -- -- 84
2017-11-01 02:00:00 19.1 6 Este 7 Nordeste 0 -- -- 83
2017-11-01 01:00:00 19.2 4 Nordeste 6 Nordeste 0 -- -- 84
2017-11-01 00:00:00 19.7 2 Este 5 Este 0 -- -- 83
2017-10-31 23:00:00 20 4 Este 5 Este 0 -- -- 82
2017-10-31 22:00:00 19.9 0 Calma 6 Este 0 -- -- 81
2017-10-31 21:00:00 20.2 3 Sudeste 4 Sudeste 0 -- -- 81
2017-10-31 20:00:00 20.4 0 Calma 4 Sudoeste 0 -- -- 80
2017-10-31 19:00:00 21.1 0 Calma 8 Oeste 0 -- -- 76
2017-10-31 18:00:00 23.7 4 Oeste 13 Oeste 0 -- -- 66
2017-10-31 17:00:00 24.8 8 Oeste 14 Oeste 0 -- -- 63
2017-10-31 16:00:00 25.3 9 Oeste 17 Sudoeste 0 -- -- 61
2017-10-31 15:00:00 25.5 8 Oeste 20 Oeste 0 -- -- 61
2017-10-31 14:00:00 25.5 10 Noroeste 22 Noroeste 0 -- -- 60
2017-10-31 13:00:00 26.4 8 Noroeste 19 Noroeste 0 -- -- 57
2017-10-31 12:00:00 25.3 6 Oeste 14 Oeste 0 -- -- 60
2017-10-31 11:00:00 24.2 8 Sudoeste 15 Sudoeste 0 -- -- 66
2017-10-31 10:00:00 22.3 4 Sudoeste 11 Oeste 0 -- -- 75
2017-10-31 09:00:00 19.1 0 Calma 6 Norte 0 -- -- 85
2017-10-31 08:00:00 18.4 3 Nordeste 7 Nordeste 0 -- -- 90
2017-10-31 07:00:00 18.7 4 Este 6 Este 0 -- -- 87
2017-10-31 06:00:00 18.7 4 Este 8 Nordeste 0 -- -- 86
2017-10-31 05:00:00 18.5 4 Nordeste 6 Nordeste 0 -- -- 91
2017-10-31 04:00:00 18.9 2 Nordeste 5 Este 0 -- -- 88
2017-10-31 03:00:00 19.2 4 Este 5 Este 0 -- -- 88
2017-10-31 02:00:00 18.7 3 Este 4 Este 0 -- -- 87
2017-10-31 01:00:00 18.1 0 Calma 3 Sur 0 -- -- 88
2017-10-31 00:00:00 18.7 0 Calma 4 Este 0 -- -- 85
2017-10-30 23:00:00 19.8 3 Este 4 Este 0 -- -- 84
2017-10-30 22:00:00 19.8 3 Este 4 Este 0 -- -- 77
2017-10-30 21:00:00 19.8 0 Calma 3 Sudoeste 0 -- -- 79
2017-10-30 20:00:00 20.5 0 Calma 5 Sudoeste 0 -- -- 81
2017-10-30 19:00:00 21.6 0 Calma 8 Sudoeste 0 -- -- 76
2017-10-30 18:00:00 23.8 3 Oeste 11 Oeste 0 -- -- 69
2017-10-30 17:00:00 25.3 4 Oeste 13 Oeste 0 -- -- 63
2017-10-30 16:00:00 25.5 7 Oeste 15 Sudoeste 0 -- -- 62
2017-10-30 15:00:00 25.8 6 Oeste 17 Oeste 0 -- -- 62
2017-10-30 14:00:00 25.8 8 Oeste 19 Oeste 0 -- -- 61
2017-10-30 13:00:00 25.5 7 Oeste 19 Sudoeste 0 -- -- 61
2017-10-30 12:00:00 24.9 9 Oeste 19 Oeste 0 -- -- 63
2017-10-30 11:00:00 24 5 Oeste 12 Sudoeste 0 -- -- 66
2017-10-30 10:00:00 22.7 2 Noroeste 8 Oeste 0 -- -- 70
2017-10-30 09:00:00 20.2 2 Oeste 9 Norte 0 -- -- 81
2017-10-30 08:00:00 19.3 0 Calma 8 Nordeste 0 -- -- 84
2017-10-30 07:00:00 19.2 5 Este 6 Este 0 -- -- 82
2017-10-30 06:00:00 19.1 3 Este 6 Nordeste 0 -- -- 82
2017-10-30 05:00:00 19.4 3 Este 8 Nordeste 0 -- -- 83
2017-10-30 04:00:00 19.7 0 Calma 8 Norte 0 -- -- 83
2017-10-30 03:00:00 19.4 2 Norte 6 Norte 0 -- -- 87
2017-10-30 02:00:00 18.9 2 Nordeste 5 Nordeste 0 -- -- 85
2017-10-30 01:00:00 19.5 0 Calma 7 Norte 0 -- -- 84
2017-10-30 00:00:00 20.2 4 Norte 10 Norte 0 -- -- 84
2017-10-29 23:00:00 20.2 5 Norte 7 Nordeste 0 -- -- 83
2017-10-29 22:00:00 20.6 3 Norte 4 Norte 0 -- -- 81
2017-10-29 21:00:00 20.8 0 Calma 3 Nordeste 0 -- -- 78
2017-10-29 20:00:00 21.7 3 Norte 7 Noroeste 0 -- -- 74
2017-10-29 19:00:00 22.9 0 Calma 6 Norte 0 -- -- 72
2017-10-29 18:00:00 24.9 2 Noroeste 18 Sudoeste 0 -- -- 65
2017-10-29 17:00:00 26.4 7 Oeste 15 Sudoeste 0 -- -- 60
2017-10-29 16:00:00 26.9 10 Sudoeste 20 Sudoeste 0 -- -- 59
2017-10-29 15:00:00 27.9 8 Oeste 21 Sudoeste 0 -- -- 59
2017-10-29 14:00:00 28.2 10 Sudoeste 17 Sudoeste 0 -- -- 55
2017-10-29 13:00:00 27.7 10 Sudoeste 19 Sudoeste 0 -- -- 58
2017-10-29 12:00:00 28.4 8 Sudoeste 16 Sudoeste 0 -- -- 56
2017-10-29 11:00:00 27.7 5 Sudoeste 10 Sudoeste 0 -- -- 49
2017-10-29 10:00:00 24.9 3 Sudoeste 8 Sudoeste 0 -- -- 57
2017-10-29 09:00:00 21 0 Calma 7 Este 0 -- -- 70
2017-10-29 08:00:00 20.4 2 Este 8 Este 0 -- -- 70
2017-10-29 07:00:00 18.5 0 Calma 8 Este 0 -- -- 64
2017-10-29 06:00:00 19.5 4 Sudeste 6 Este 0 -- -- 51
2017-10-29 05:00:00 20 0 Calma 6 Sudeste 0 -- -- 55
2017-10-29 04:00:00 19.9 0 Calma 3 Sur 0 -- -- 37
2017-10-29 03:00:00 20 0 Calma 8 Nordeste 0 -- -- 41
2017-10-29 02:00:00 21.4 4 Este 8 Este 0 -- -- 54
2017-10-29 01:00:00 21.1 0 Calma 9 Este 0 -- -- 58
2017-10-29 00:00:00 20.8 0 Calma 4 Sudeste 0 -- -- 52
2017-10-28 23:00:00 21.7 0 Calma 5 Nordeste 0 -- -- 49
2017-10-28 22:00:00 22.3 0 Calma 4 Sudeste 0 -- -- 46
2017-10-28 21:00:00 23.2 0 Calma 3 Nordeste 0 -- -- 45
2017-10-28 20:00:00 24.9 0 Calma 5 Sudoeste 0 -- -- 47
2017-10-28 19:00:00 27.8 0 Calma 6 Sudoeste 0 -- -- 40
2017-10-28 18:00:00 28.5 0 Calma 11 Sudoeste 0 -- -- 34
2017-10-28 17:00:00 29.4 6 Sudoeste 11 Sudoeste 0 -- -- 34
2017-10-28 16:00:00 29.2 3 Noroeste 12 Sudoeste 0 -- -- 35
2017-10-28 15:00:00 30.6 2 Sudoeste 14 Sudoeste 0 -- -- 30
2017-10-28 14:00:00 31.4 6 Sudoeste 12 Sudoeste 0 -- -- 27
2017-10-28 13:00:00 31.3 5 Oeste 10 Oeste 0 -- -- 23
2017-10-28 12:00:00 28.8 4 Sudoeste 11 Sudoeste 0 -- -- 32
2017-10-28 11:00:00 26.8 2 Sudoeste 5 Sudoeste 0 -- -- 30
2017-10-28 10:00:00 24.4 2 Sudeste 6 Nordeste 0 -- -- 38
2017-10-28 09:00:00 22.5 3 Sudoeste 8 Sudoeste 0 -- -- 35
2017-10-28 08:00:00 23.7 4 Nordeste 17 Sudoeste 0 -- -- 32
2017-10-28 07:00:00 28 6 Este 17 Este 0 -- -- 19
2017-10-28 06:00:00 22.5 0 Calma 6 Sudeste 0 -- -- 34
2017-10-28 05:00:00 21.6 0 Calma 6 Nordeste 0 -- -- 43
2017-10-28 04:00:00 21.2 2 Sur 10 Sur 0 -- -- 46
2017-10-28 03:00:00 21.2 2 Sudeste 6 Nordeste 0 -- -- 47
2017-10-28 02:00:00 21 2 Sudoeste 6 Este 0 -- -- 47
2017-10-28 01:00:00 21.6 0 Calma 6 Sudeste 0 -- -- 47
2017-10-28 00:00:00 23.5 6 Sudeste 12 Sudoeste 0 -- -- 49
2017-10-27 23:00:00 23.9 4 Este 10 Sudeste 0 -- -- 38
2017-10-27 22:00:00 24.1 0 Calma 5 Sur 0 -- -- 41
2017-10-27 21:00:00 26.3 0 Calma 12 Nordeste 0 -- -- 39
2017-10-27 20:00:00 28.3 8 Nordeste 25 Nordeste 0 -- -- 22
2017-10-27 19:00:00 28.8 11 Nordeste 27 Este 0 -- -- 22
2017-10-27 18:00:00 30 11 Este 31 Este 0 -- -- 22
2017-10-27 17:00:00 29.9 10 Este 32 Nordeste 0 -- -- 22
2017-10-27 16:00:00 30.5 13 Nordeste 32 Sur 0 -- -- 23
2017-10-27 15:00:00 30.7 10 Nordeste 27 Oeste 0 -- -- 28
2017-10-27 14:00:00 30.9 8 Noroeste 33 Sudoeste 0 -- -- 30
2017-10-27 13:00:00 30.2 14 Sudoeste 35 Sur 0 -- -- 33
2017-10-27 12:00:00 30.9 8 Noroeste 31 Este 0 -- -- 30
2017-10-27 11:00:00 30.6 10 Este 33 Nordeste 0 -- -- 20
2017-10-27 10:00:00 28.6 15 Nordeste 41 Este 0 -- -- 22
2017-10-27 09:00:00 27.9 11 Este 36 Sudeste 0 -- -- 23
2017-10-27 08:00:00 27.8 11 Este 39 Este 0 -- -- 23
2017-10-27 07:00:00 28.1 15 Este 43 Este 0 -- -- 23
2017-10-27 06:00:00 28.2 12 Este 45 Nordeste 0 -- -- 23
2017-10-27 05:00:00 29 12 Este 39 Sur 0 -- -- 20
2017-10-27 04:00:00 30 13 Este 35 Este 0 -- -- 16
2017-10-27 03:00:00 29.9 10 Nordeste 39 Este 0 -- -- 15
2017-10-27 02:00:00 30 12 Este 31 Este 0 -- -- 16
2017-10-27 01:00:00 30.3 10 Este 27 Este 0 -- -- 15
2017-10-27 00:00:00 30 9 Este 25 Sudeste 0 -- -- 20
2017-10-26 23:00:00 30.5 8 Sudeste 34 Este 0 -- -- 19
2017-10-26 22:00:00 29.7 9 Este 30 Este 0 -- -- 19
2017-10-26 21:00:00 29.8 10 Este 28 Este 0 -- -- 19
2017-10-26 20:00:00 29.5 7 Este 32 Este 0 -- -- 19
2017-10-26 19:00:00 29.3 11 Nordeste 26 Sudoeste 0 -- -- 20
2017-10-26 18:00:00 29.6 12 Norte 30 Norte 0 -- -- 22
2017-10-26 17:00:00 29.6 14 Norte 29 Norte 0 -- -- 23
2017-10-26 16:00:00 31.4 10 Noroeste 22 Noroeste 0 -- -- 21
2017-10-26 15:00:00 32.3 9 Norte 25 Nordeste 0 -- -- 18
2017-10-26 14:00:00 32.8 10 Norte 34 Este 0 -- -- 17
2017-10-26 13:00:00 32.6 12 Nordeste 32 Sudeste 0 -- -- 18
2017-10-26 12:00:00 32.4 10 Nordeste 28 Nordeste 0 -- -- 20
2017-10-26 11:00:00 31.8 10 Norte 34 Este 0 -- -- 20
2017-10-26 10:00:00 30.9 14 Este 32 Este 0 -- -- 20
2017-10-26 09:00:00 30.1 9 Este 26 Este 0 -- -- 21
2017-10-26 08:00:00 26.4 8 Este 20 Sudoeste 0 -- -- 25
2017-10-26 07:00:00 30.6 11 Nordeste 28 Nordeste 0 -- -- 20
2017-10-26 06:00:00 29.4 4 Este 20 Nordeste 0 -- -- 22
2017-10-26 05:00:00 25.4 5 Este 15 Este 0 -- -- 26
2017-10-26 04:00:00 25.2 3 Nordeste 14 Nordeste 0 -- -- 28
2017-10-26 03:00:00 29 5 Nordeste 19 Nordeste 0 -- -- 22
2017-10-26 02:00:00 23.5 0 Calma 13 Nordeste 0 -- -- 30
2017-10-26 01:00:00 27.4 8 Este 15 Nordeste 0 -- -- 25
2017-10-26 00:00:00 23.8 0 Calma 4 Este 0 -- -- 30